Qtas de Valle Verde, Puerto Rico
Current Conditions -  °F | °C
As of 5:50 PM on Wednesday 28 Jan 2015 (Local Time) from TJBQ Reporting Station
Scattered Clouds Scattered Clouds  
Wind Chill: 79°   Ceiling: Unl
Heat Index: 81°   Visibility: 10mi
Dew Point: 66°   Wind: 6mph
Humidity: 65%   Direction: 50°NE
Pressure: 29.97"   Gusts: NA
Location:  18.0306°N, 66.8507°W
Report Text: TJBQ 282150Z 05005KT 10SM SCT044 SCT075 26/19 A2997 RMK RWY08 ATIS T
Loading
Personal Weather Stations






























Interactive Weather Map New forecast layout! Learn more

10-Day Weather Forecast

Advertisements
Track Severe Weather on mobile